Aviation Digital Data Service (ADDS)

Output produced by METARs form (1709 UTC 21 September 2019)
found at http://aviationweather.gov/metar/data/
 
KLFK 211256Z 2113/2212 13006KT P6SM FEW010 FEW250 
     FM211600 14008KT P6SM BKN050 
     FM220000 13006KT P6SM BKN250 
     FM220900 13006KT 4SM BR OVC015